createdAt,value
2023-05-28T00:00:47.530Z,21.00
2023-05-28T00:03:18.628Z,21.00
2023-05-28T00:05:47.283Z,21.10
2023-05-28T00:08:17.517Z,21.00
2023-05-28T00:10:44.960Z,21.00
2023-05-28T00:13:12.428Z,21.10
2023-05-28T00:15:39.892Z,21.10
2023-05-28T00:18:07.445Z,21.10
2023-05-28T00:20:34.864Z,21.00
2023-05-28T00:23:02.546Z,20.90
2023-05-28T00:25:30.047Z,20.90
2023-05-28T00:27:57.448Z,20.90
2023-05-28T00:30:26.067Z,20.90
2023-05-28T00:32:53.629Z,20.90
2023-05-28T00:35:21.535Z,20.90
2023-05-28T00:37:49.093Z,20.90
2023-05-28T00:40:19.385Z,20.80
2023-05-28T00:42:47.166Z,20.80
2023-05-28T00:45:15.227Z,20.80
2023-05-28T00:47:43.479Z,20.80
2023-05-28T00:50:14.050Z,20.80
2023-05-28T00:52:42.244Z,20.70
2023-05-28T00:55:18.897Z,20.70
2023-05-28T00:57:48.773Z,20.70
2023-05-28T01:00:17.666Z,20.60
2023-05-28T01:02:45.394Z,20.60
2023-05-28T01:05:12.942Z,20.50
2023-05-28T01:07:40.627Z,20.40
2023-05-28T01:10:08.580Z,20.40
2023-05-28T01:12:39.351Z,20.40
2023-05-28T01:15:10.138Z,20.40
2023-05-28T01:17:39.464Z,20.30
2023-05-28T01:20:12.458Z,20.30
2023-05-28T01:22:46.797Z,20.20
2023-05-28T01:25:17.306Z,20.20
2023-05-28T01:27:45.298Z,20.20
2023-05-28T01:30:13.911Z,20.20
2023-05-28T01:32:42.507Z,20.20
2023-05-28T01:35:11.433Z,20.20
2023-05-28T01:37:46.003Z,20.20
2023-05-28T01:40:15.456Z,20.30
2023-05-28T01:42:44.631Z,20.30
2023-05-28T01:45:13.864Z,20.30
2023-05-28T01:47:42.806Z,20.30
2023-05-28T01:50:10.955Z,20.30
2023-05-28T01:52:39.385Z,20.20
2023-05-28T01:55:09.796Z,20.20
2023-05-28T01:57:37.362Z,20.10
2023-05-28T02:00:07.251Z,20.10
2023-05-28T02:02:43.858Z,20.10
2023-05-28T02:05:14.263Z,20.10
2023-05-28T02:07:42.983Z,20.20
2023-05-28T02:10:10.810Z,20.20
2023-05-28T02:12:38.241Z,20.20
2023-05-28T02:15:06.442Z,20.20
2023-05-28T02:17:34.658Z,20.20
2023-05-28T02:20:03.295Z,20.20
2023-05-28T02:22:30.775Z,20.20
2023-05-28T02:24:58.260Z,20.20
2023-05-28T02:27:25.668Z,20.20
2023-05-28T02:29:53.062Z,20.20
2023-05-28T02:32:20.548Z,20.10
2023-05-28T02:34:47.992Z,20.20
2023-05-28T02:37:15.494Z,20.20
2023-05-28T02:39:43.076Z,20.20
2023-05-28T02:42:10.722Z,20.30
2023-05-28T02:44:38.620Z,20.40
2023-05-28T02:47:07.352Z,20.40
2023-05-28T02:49:34.834Z,20.30
2023-05-28T02:52:02.457Z,20.30
2023-05-28T02:54:35.435Z,20.40
2023-05-28T02:57:03.859Z,20.40
2023-05-28T02:59:31.480Z,20.40
2023-05-28T03:01:59.635Z,20.40
2023-05-28T03:04:27.084Z,20.40
2023-05-28T03:06:54.616Z,20.40
2023-05-28T03:09:23.296Z,20.50
2023-05-28T03:11:50.832Z,20.50
2023-05-28T03:14:18.256Z,20.50
2023-05-28T03:16:46.986Z,20.50
2023-05-28T03:19:22.230Z,20.40
2023-05-28T03:21:49.700Z,20.40
2023-05-28T03:24:19.650Z,20.40
2023-05-28T03:26:51.234Z,20.50
2023-05-28T03:29:23.426Z,20.50
2023-05-28T03:32:03.815Z,20.60
2023-05-28T03:34:31.340Z,20.60
2023-05-28T03:36:58.830Z,20.50
2023-05-28T03:39:26.365Z,20.50
2023-05-28T03:41:54.733Z,20.50
2023-05-28T03:44:25.667Z,20.60
2023-05-28T03:46:54.231Z,20.60
2023-05-28T03:49:21.729Z,20.60
2023-05-28T03:51:49.286Z,20.60
2023-05-28T03:54:17.245Z,20.60
2023-05-28T03:56:46.430Z,20.60
2023-05-28T03:59:13.934Z,20.60
2023-05-28T04:01:41.519Z,20.50
2023-05-28T04:04:09.097Z,20.50
2023-05-28T04:06:37.274Z,20.50
2023-05-28T04:09:04.776Z,20.40
2023-05-28T04:11:32.313Z,20.40
2023-05-28T04:14:01.179Z,20.30
2023-05-28T04:16:29.131Z,20.30
2023-05-28T04:18:57.693Z,20.30
2023-05-28T04:21:25.325Z,20.30
2023-05-28T04:23:52.802Z,20.30
2023-05-28T04:26:23.187Z,20.30
2023-05-28T04:28:54.220Z,20.30
2023-05-28T04:31:21.821Z,20.40
2023-05-28T04:33:50.035Z,20.40
2023-05-28T04:36:18.406Z,20.50
2023-05-28T04:38:46.459Z,20.60
2023-05-28T04:41:16.821Z,20.70
2023-05-28T04:43:44.897Z,20.60
2023-05-28T04:46:13.088Z,20.60
2023-05-28T04:48:40.734Z,20.60
2023-05-28T04:51:08.295Z,20.60
2023-05-28T04:53:35.784Z,20.60
2023-05-28T04:56:05.140Z,20.60
2023-05-28T04:58:33.758Z,20.60
2023-05-28T05:01:01.247Z,20.70
2023-05-28T05:03:32.990Z,20.80
2023-05-28T05:06:01.698Z,20.90
2023-05-28T05:08:29.282Z,21.00
2023-05-28T05:10:57.015Z,21.10
2023-05-28T05:13:24.923Z,21.20
2023-05-28T05:15:53.239Z,21.50
2023-05-28T05:18:22.171Z,21.90
2023-05-28T05:20:49.716Z,22.20
2023-05-28T05:23:17.675Z,22.40
2023-05-28T05:25:49.166Z,22.50
2023-05-28T05:28:16.748Z,22.70
2023-05-28T05:30:44.873Z,22.80
2023-05-28T05:33:12.678Z,22.90
2023-05-28T05:36:00.735Z,22.80
2023-05-28T05:38:49.094Z,22.80
2023-05-28T05:41:33.681Z,22.80
2023-05-28T05:44:15.454Z,22.80
2023-05-28T05:46:43.274Z,22.70
2023-05-28T05:49:10.849Z,22.90
2023-05-28T05:51:39.252Z,22.90
2023-05-28T05:54:07.222Z,23.00
2023-05-28T05:56:35.472Z,23.00
2023-05-28T05:59:03.118Z,23.10
2023-05-28T06:01:31.746Z,23.10
2023-05-28T06:03:59.334Z,23.40
2023-05-28T06:06:53.121Z,23.70
2023-05-28T06:09:51.131Z,24.50
2023-05-28T06:12:25.667Z,25.40
2023-05-28T06:14:53.579Z,26.20
2023-05-28T06:17:21.524Z,27.20
2023-05-28T06:19:50.866Z,28.10
2023-05-28T06:22:19.060Z,28.70
2023-05-28T06:24:49.919Z,29.00
2023-05-28T06:27:18.310Z,29.10
2023-05-28T06:29:46.548Z,29.10
2023-05-28T06:32:14.586Z,29.30
2023-05-28T06:34:42.269Z,29.30
2023-05-28T06:37:09.917Z,29.80
2023-05-28T06:39:37.859Z,30.00
2023-05-28T06:42:06.984Z,30.60
2023-05-28T06:44:40.242Z,31.00
2023-05-28T06:47:13.176Z,31.40
2023-05-28T06:49:42.667Z,31.40
2023-05-28T06:52:10.202Z,31.00
2023-05-28T06:54:37.616Z,31.20
2023-05-28T06:57:07.610Z,31.40
2023-05-28T06:59:53.503Z,31.60
2023-05-28T07:02:39.447Z,31.10
2023-05-28T07:05:45.307Z,31.00
2023-05-28T07:08:13.695Z,30.50
2023-05-28T07:10:41.319Z,29.90
2023-05-28T07:13:09.301Z,29.60
2023-05-28T07:15:39.003Z,29.10
2023-05-28T07:18:09.425Z,29.10
2023-05-28T07:20:37.228Z,29.20
2023-05-28T07:23:12.880Z,29.00
2023-05-28T07:25:43.737Z,29.50
2023-05-28T07:28:11.405Z,29.90
2023-05-28T07:30:39.249Z,29.60
2023-05-28T07:33:08.755Z,28.90
2023-05-28T07:35:37.477Z,29.00
2023-05-28T07:38:04.935Z,29.50
2023-05-28T07:40:32.624Z,29.80
2023-05-28T07:43:10.239Z,30.20
2023-05-28T07:45:38.488Z,30.00
2023-05-28T07:48:06.292Z,30.20
2023-05-28T07:50:46.254Z,31.00
2023-05-28T07:53:31.182Z,31.30
2023-05-28T07:55:58.704Z,31.80
2023-05-28T07:58:26.804Z,31.70
2023-05-28T08:00:54.399Z,31.60
2023-05-28T08:03:22.014Z,31.50
2023-05-28T08:05:50.143Z,31.50
2023-05-28T08:08:18.039Z,31.30
2023-05-28T08:10:45.893Z,31.00
2023-05-28T08:13:15.064Z,31.00
2023-05-28T08:15:43.032Z,31.00
2023-05-28T08:18:12.316Z,31.90
2023-05-28T08:20:40.115Z,32.40
2023-05-28T08:23:16.463Z,33.60
2023-05-28T08:25:44.684Z,34.20
2023-05-28T08:28:18.834Z,33.90
2023-05-28T08:30:47.104Z,34.20
2023-05-28T08:33:36.916Z,34.00
2023-05-28T08:36:04.642Z,33.00
2023-05-28T08:38:33.060Z,31.60
2023-05-28T08:41:02.913Z,31.00
2023-05-28T08:43:30.440Z,31.10
2023-05-28T08:45:58.588Z,31.20
2023-05-28T08:48:35.920Z,31.50
2023-05-28T08:51:04.408Z,32.00
2023-05-28T08:53:47.107Z,32.30
2023-05-28T08:56:19.087Z,32.80
2023-05-28T08:58:47.140Z,33.30
2023-05-28T09:01:14.603Z,34.10
2023-05-28T09:03:47.568Z,35.00
2023-05-28T09:06:21.351Z,34.80
2023-05-28T09:08:49.702Z,34.90
2023-05-28T09:11:32.773Z,34.70
2023-05-28T09:14:08.786Z,34.50
2023-05-28T09:16:36.730Z,33.60
2023-05-28T09:19:09.156Z,33.50
2023-05-28T09:21:39.389Z,33.20
2023-05-28T09:24:14.891Z,33.50
2023-05-28T09:27:15.176Z,33.20
2023-05-28T09:29:42.695Z,33.00
2023-05-28T09:32:10.096Z,33.00
2023-05-28T09:34:44.559Z,33.00
2023-05-28T09:37:12.391Z,33.20
2023-05-28T09:39:39.786Z,33.80
2023-05-28T09:42:10.297Z,34.00
2023-05-28T09:44:40.231Z,34.00
2023-05-28T09:47:15.809Z,33.50
2023-05-28T09:49:47.655Z,34.10
2023-05-28T09:52:18.643Z,34.00
2023-05-28T09:54:51.711Z,33.90
2023-05-28T09:57:28.348Z,34.00
2023-05-28T09:59:57.906Z,34.10
2023-05-28T10:02:42.890Z,34.40
2023-05-28T10:05:13.114Z,34.60
2023-05-28T10:07:45.378Z,34.60
2023-05-28T10:10:15.082Z,34.70
2023-05-28T10:12:43.680Z,34.10
2023-05-28T10:15:12.010Z,34.10
2023-05-28T10:17:40.448Z,34.40
2023-05-28T10:20:11.592Z,34.30
2023-05-28T10:22:40.763Z,34.40
2023-05-28T10:25:11.745Z,33.90
2023-05-28T10:27:45.689Z,33.80
2023-05-28T10:30:14.120Z,34.20
2023-05-28T10:32:42.540Z,34.50
2023-05-28T10:35:13.573Z,34.40
2023-05-28T10:37:41.039Z,34.10
2023-05-28T10:40:11.086Z,34.10
2023-05-28T10:42:44.179Z,33.90
2023-05-28T10:45:12.102Z,33.30
2023-05-28T10:47:42.019Z,33.00
2023-05-28T10:50:17.659Z,33.20
2023-05-28T10:53:08.805Z,33.30
2023-05-28T10:55:55.006Z,32.50
2023-05-28T10:58:35.583Z,32.40
2023-05-28T11:01:11.660Z,32.00
2023-05-28T11:03:43.916Z,31.50
2023-05-28T11:06:13.010Z,31.00
2023-05-28T11:08:49.534Z,30.40
2023-05-28T11:11:18.918Z,29.90
2023-05-28T11:13:48.293Z,29.40
2023-05-28T11:16:17.986Z,29.10
2023-05-28T11:19:02.894Z,28.70
2023-05-28T11:21:30.758Z,28.30
2023-05-28T11:24:06.394Z,28.20
2023-05-28T11:26:34.331Z,28.10
2023-05-28T11:29:04.124Z,27.80
2023-05-28T11:31:40.242Z,27.50
2023-05-28T11:34:08.681Z,27.40
2023-05-28T11:36:43.473Z,27.30
2023-05-28T11:39:11.562Z,27.20
2023-05-28T11:41:39.512Z,27.20
2023-05-28T11:44:21.198Z,27.50
2023-05-28T11:46:55.315Z,27.70
2023-05-28T11:49:23.919Z,27.90
2023-05-28T11:51:53.621Z,27.90
2023-05-28T11:54:21.929Z,27.50
2023-05-28T11:56:50.568Z,27.30
2023-05-28T11:59:20.225Z,27.10
2023-05-28T12:01:47.604Z,27.10
2023-05-28T12:04:15.398Z,27.10
2023-05-28T12:06:53.175Z,27.10
2023-05-28T12:09:20.858Z,27.00
2023-05-28T12:12:11.078Z,27.00
2023-05-28T12:14:38.874Z,27.20
2023-05-28T12:17:10.491Z,27.20
2023-05-28T12:19:38.213Z,27.30
2023-05-28T12:22:15.729Z,27.50
2023-05-28T12:24:51.912Z,27.80
2023-05-28T12:27:19.567Z,28.00
2023-05-28T12:29:47.229Z,27.90
2023-05-28T12:32:14.687Z,27.90
2023-05-28T12:34:42.123Z,27.70
2023-05-28T12:37:10.149Z,27.40
2023-05-28T12:39:38.851Z,27.10
2023-05-28T12:42:07.088Z,27.10
2023-05-28T12:44:40.372Z,27.20
2023-05-28T12:47:10.313Z,27.40
2023-05-28T12:49:37.696Z,27.50
2023-05-28T12:52:05.389Z,27.70
2023-05-28T12:54:34.970Z,27.70
2023-05-28T12:57:03.696Z,27.50
2023-05-28T12:59:31.507Z,27.40
2023-05-28T13:01:59.563Z,27.20
2023-05-28T13:04:27.009Z,27.20
2023-05-28T13:06:54.842Z,27.30
2023-05-28T13:09:22.485Z,27.20
2023-05-28T13:11:49.932Z,27.40
2023-05-28T13:14:17.397Z,27.40
2023-05-28T13:16:44.929Z,27.50
2023-05-28T13:19:12.327Z,27.50
2023-05-28T13:21:39.849Z,27.50
2023-05-28T13:24:07.987Z,27.70
2023-05-28T13:26:36.406Z,27.70
2023-05-28T13:29:07.948Z,27.70
2023-05-28T13:31:36.348Z,27.60
2023-05-28T13:34:04.535Z,27.40
2023-05-28T13:36:32.231Z,27.30
2023-05-28T13:38:59.668Z,27.20
2023-05-28T13:41:27.170Z,27.20
2023-05-28T13:43:57.569Z,27.30
2023-05-28T13:46:28.533Z,27.50
2023-05-28T13:48:56.093Z,27.50
2023-05-28T13:51:23.558Z,27.40
2023-05-28T13:53:51.259Z,27.30
2023-05-28T13:56:18.958Z,27.40
2023-05-28T13:58:46.445Z,27.50
2023-05-28T14:01:13.905Z,27.40
2023-05-28T14:03:46.456Z,27.30
2023-05-28T14:06:14.892Z,27.40
2023-05-28T14:08:42.366Z,27.40
2023-05-28T14:11:09.761Z,27.40
2023-05-28T14:13:37.333Z,27.50
2023-05-28T14:16:04.916Z,27.60
2023-05-28T14:18:32.318Z,27.80
2023-05-28T14:20:59.865Z,27.90
2023-05-28T14:23:27.445Z,28.10
2023-05-28T14:25:55.013Z,28.00
2023-05-28T14:28:22.947Z,28.10
2023-05-28T14:30:50.505Z,28.10
2023-05-28T14:33:17.947Z,28.20
2023-05-28T14:35:45.416Z,28.20
2023-05-28T14:38:12.841Z,28.20
2023-05-28T14:40:40.272Z,28.20
2023-05-28T14:43:07.696Z,28.20
2023-05-28T14:45:35.096Z,28.20
2023-05-28T14:48:02.660Z,28.20
2023-05-28T14:50:30.239Z,28.00
2023-05-28T14:52:57.647Z,28.00
2023-05-28T14:55:25.051Z,28.00
2023-05-28T14:57:52.537Z,27.90
2023-05-28T15:00:19.960Z,28.10
2023-05-28T15:02:47.372Z,28.20
2023-05-28T15:05:14.798Z,28.20
2023-05-28T15:07:42.236Z,28.10
2023-05-28T15:10:10.048Z,27.90
2023-05-28T15:12:37.527Z,27.90
2023-05-28T15:15:05.437Z,27.80
2023-05-28T15:17:32.854Z,27.60
2023-05-28T15:20:00.643Z,27.50
2023-05-28T15:22:28.126Z,27.40
2023-05-28T15:24:55.716Z,27.40
2023-05-28T15:27:24.006Z,27.40
2023-05-28T15:29:52.284Z,27.20
2023-05-28T15:32:19.908Z,27.20
2023-05-28T15:34:47.488Z,27.30
2023-05-28T15:37:15.136Z,27.30
2023-05-28T15:39:42.728Z,27.20
2023-05-28T15:42:10.810Z,27.10
2023-05-28T15:44:39.900Z,27.10
2023-05-28T15:47:07.609Z,27.20
2023-05-28T15:49:36.754Z,27.30
2023-05-28T15:52:04.525Z,27.30
2023-05-28T15:54:32.127Z,27.30
2023-05-28T15:56:59.773Z,27.40
2023-05-28T15:59:27.323Z,27.20
2023-05-28T16:04:25.543Z,27.10
2023-05-28T16:06:53.452Z,27.10
2023-05-28T16:09:21.134Z,27.20
2023-05-28T16:11:52.145Z,27.10
2023-05-28T16:14:20.811Z,27.10
2023-05-28T16:16:52.964Z,26.90
2023-05-28T16:19:20.443Z,26.80
2023-05-28T16:21:48.248Z,26.80
2023-05-28T16:24:18.093Z,26.90
2023-05-28T16:26:50.022Z,26.70
2023-05-28T16:29:18.948Z,26.70
2023-05-28T16:31:48.449Z,26.70
2023-05-28T16:34:16.565Z,26.70
2023-05-28T16:36:47.080Z,26.70
2023-05-28T16:39:14.685Z,26.70
2023-05-28T16:41:42.241Z,26.60
2023-05-28T16:44:09.789Z,26.60
2023-05-28T16:46:38.228Z,26.60
2023-05-28T16:49:05.830Z,26.50
2023-05-28T16:51:33.981Z,26.50
2023-05-28T16:54:01.467Z,26.40
2023-05-28T16:56:30.481Z,26.40
2023-05-28T16:58:57.993Z,26.40
2023-05-28T17:01:25.662Z,26.40
2023-05-28T17:03:53.275Z,26.30
2023-05-28T17:06:21.577Z,26.20
2023-05-28T17:08:48.996Z,26.10
2023-05-28T17:11:16.391Z,26.00
2023-05-28T17:13:43.796Z,25.90
2023-05-28T17:16:11.492Z,25.70
2023-05-28T17:18:41.537Z,25.70
2023-05-28T17:21:09.709Z,25.60
2023-05-28T17:23:37.174Z,25.60
2023-05-28T17:26:04.594Z,25.60
2023-05-28T17:28:32.018Z,25.50
2023-05-28T17:30:59.973Z,25.40
2023-05-28T17:33:27.633Z,25.40
2023-05-28T17:35:55.076Z,25.30
2023-05-28T17:38:22.494Z,25.30
2023-05-28T17:40:51.197Z,25.20
2023-05-28T17:43:18.687Z,25.20
2023-05-28T17:45:47.531Z,25.20
2023-05-28T17:48:15.076Z,25.10
2023-05-28T17:50:42.468Z,25.10
2023-05-28T17:53:11.138Z,25.10
2023-05-28T17:55:38.532Z,25.00
2023-05-28T17:58:05.964Z,25.00
2023-05-28T18:00:33.521Z,25.00
2023-05-28T18:03:02.931Z,24.90
2023-05-28T18:05:32.491Z,24.80
2023-05-28T18:07:59.902Z,24.80
2023-05-28T18:10:27.334Z,24.70
2023-05-28T18:12:54.766Z,24.70
2023-05-28T18:15:27.617Z,24.70
2023-05-28T18:17:55.870Z,24.70
2023-05-28T18:20:23.531Z,24.70
2023-05-28T18:22:50.992Z,24.70
2023-05-28T18:25:18.357Z,24.60
2023-05-28T18:27:45.897Z,24.60
2023-05-28T18:30:13.352Z,24.60
2023-05-28T18:32:41.155Z,24.50
2023-05-28T18:35:08.660Z,24.40
2023-05-28T18:37:36.170Z,24.30
2023-05-28T18:40:05.045Z,24.30
2023-05-28T18:42:32.419Z,24.30
2023-05-28T18:44:59.893Z,24.20
2023-05-28T18:47:27.383Z,24.20
2023-05-28T18:49:54.816Z,24.10
2023-05-28T18:52:22.360Z,24.10
2023-05-28T18:54:49.750Z,24.10
2023-05-28T18:57:17.193Z,24.00
2023-05-28T18:59:44.582Z,24.00
2023-05-28T19:02:12.053Z,23.90
2023-05-28T19:04:39.511Z,23.90
2023-05-28T19:07:06.916Z,23.80
2023-05-28T19:09:34.348Z,23.70
2023-05-28T19:12:01.850Z,23.60
2023-05-28T19:14:29.289Z,23.50
2023-05-28T19:16:56.676Z,23.40
2023-05-28T19:19:27.211Z,23.30
2023-05-28T19:21:54.669Z,23.30
2023-05-28T19:24:22.111Z,23.20
2023-05-28T19:26:49.854Z,23.10
2023-05-28T19:29:17.370Z,23.00
2023-05-28T19:31:44.783Z,22.90
2023-05-28T19:34:12.443Z,22.80
2023-05-28T19:36:39.917Z,22.70
2023-05-28T19:39:07.458Z,22.70
2023-05-28T19:41:36.662Z,22.60
2023-05-28T19:44:06.060Z,22.50
2023-05-28T19:46:34.033Z,22.40
2023-05-28T19:49:01.504Z,22.40
2023-05-28T19:51:29.038Z,22.30
2023-05-28T19:53:57.445Z,22.30
2023-05-28T19:56:24.936Z,22.30
2023-05-28T19:58:52.385Z,22.30
2023-05-28T20:01:19.830Z,22.30
2023-05-28T20:03:47.593Z,22.20
2023-05-28T20:06:17.210Z,22.20
2023-05-28T20:08:44.607Z,22.20
2023-05-28T20:11:12.125Z,22.20
2023-05-28T20:13:39.620Z,22.10
2023-05-28T20:16:07.355Z,22.10
2023-05-28T20:18:35.388Z,22.10
2023-05-28T20:21:07.178Z,22.10
2023-05-28T20:23:35.906Z,22.00
2023-05-28T20:26:03.802Z,22.00
2023-05-28T20:28:31.386Z,21.90
2023-05-28T20:30:58.934Z,21.90
2023-05-28T20:33:26.367Z,21.80
2023-05-28T20:35:53.987Z,21.80
2023-05-28T20:38:21.406Z,21.80
2023-05-28T20:40:48.985Z,21.80
2023-05-28T20:43:16.485Z,21.80
2023-05-28T20:45:44.496Z,21.80
2023-05-28T20:48:12.040Z,21.80
2023-05-28T20:50:39.525Z,21.70
2023-05-28T20:53:07.017Z,21.70
2023-05-28T20:55:34.386Z,21.70
2023-05-28T20:58:03.748Z,21.70
2023-05-28T21:00:31.536Z,21.60
2023-05-28T21:02:59.204Z,21.60
2023-05-28T21:05:26.954Z,21.60
2023-05-28T21:07:54.463Z,21.50
2023-05-28T21:10:21.992Z,21.50
2023-05-28T21:12:49.408Z,21.40
2023-05-28T21:15:16.900Z,21.40
2023-05-28T21:17:44.374Z,21.40
2023-05-28T21:20:12.172Z,21.30
2023-05-28T21:22:39.556Z,21.30
2023-05-28T21:25:07.269Z,21.30
2023-05-28T21:27:34.746Z,21.30
2023-05-28T21:30:03.849Z,21.30
2023-05-28T21:32:31.418Z,21.20
2023-05-28T21:35:00.260Z,21.20
2023-05-28T21:37:27.672Z,21.20
2023-05-28T21:39:55.152Z,21.20
2023-05-28T21:42:22.547Z,21.20
2023-05-28T21:44:53.473Z,21.20
2023-05-28T21:47:21.189Z,21.10
2023-05-28T21:49:48.813Z,21.10
2023-05-28T21:52:16.274Z,21.10
2023-05-28T21:54:43.718Z,21.10
2023-05-28T21:57:12.909Z,21.10
2023-05-28T21:59:40.357Z,21.10
2023-05-28T22:02:08.053Z,21.10
2023-05-28T22:04:37.485Z,21.10
2023-05-28T22:07:05.072Z,21.10
2023-05-28T22:09:33.338Z,21.10
2023-05-28T22:12:01.383Z,21.10
2023-05-28T22:14:28.795Z,21.00
2023-05-28T22:16:56.195Z,21.10
2023-05-28T22:19:23.683Z,21.10
2023-05-28T22:21:51.127Z,21.10
2023-05-28T22:24:18.523Z,21.10
2023-05-28T22:26:45.923Z,21.10
2023-05-28T22:29:13.301Z,21.00
2023-05-28T22:31:41.018Z,21.00
2023-05-28T22:34:08.422Z,21.00
2023-05-28T22:36:36.843Z,21.00
2023-05-28T22:39:04.361Z,21.00
2023-05-28T22:41:32.833Z,21.00
2023-05-28T22:44:01.279Z,21.00
2023-05-28T22:46:28.820Z,20.90
2023-05-28T22:48:58.670Z,20.90
2023-05-28T22:51:26.512Z,20.90
2023-05-28T22:53:55.114Z,20.90
2023-05-28T22:56:23.032Z,20.90
2023-05-28T22:58:50.971Z,20.90
2023-05-28T23:01:18.633Z,20.90
2023-05-28T23:03:46.528Z,20.80
2023-05-28T23:06:15.106Z,20.90
2023-05-28T23:08:43.393Z,20.80
2023-05-28T23:11:10.970Z,20.80
2023-05-28T23:13:38.960Z,20.80
2023-05-28T23:16:06.526Z,20.80
2023-05-28T23:18:37.252Z,20.70
2023-05-28T23:21:09.170Z,20.70
2023-05-28T23:23:36.955Z,20.60
2023-05-28T23:26:04.438Z,20.60
2023-05-28T23:28:31.840Z,20.70
2023-05-28T23:30:59.349Z,20.60
2023-05-28T23:33:26.781Z,20.50
2023-05-28T23:35:54.424Z,20.50
2023-05-28T23:38:22.413Z,20.40
2023-05-28T23:40:49.936Z,20.40
2023-05-28T23:43:17.367Z,20.30
2023-05-28T23:45:45.307Z,20.20
2023-05-28T23:48:13.044Z,20.20
2023-05-28T23:50:40.571Z,20.20
2023-05-28T23:53:08.076Z,20.20
2023-05-28T23:55:35.658Z,20.10
2023-05-28T23:58:04.353Z,20.00
